| time (UTC) | temp F | wind direction | speed knots | gust knots | rain 1hr in | rain 24hr in | rain mn in | humidity % | barometer mb |
| 20260505171503 | 57 | 0 | 0.0 | 0.0 | 0.00 | 0.00 | 0.00 | 35 | 1005.3 |
| 20260505171004 | 57 | 0 | 0.0 | 0.0 | 0.00 | 0.00 | 0.00 | 35 | 1005.3 |
| 20260505170504 | 56 | 0 | 0.0 | 0.0 | 0.00 | 0.00 | 0.00 | 36 | 1005.1 |
| 20260505165504 | 57 | 0 | 0.0 | 0.0 | 0.00 | 0.00 | 0.00 | 35 | 1005.2 |
| 20260505165004 | 57 | 0 | 0.0 | 0.0 | 0.00 | 0.00 | 0.00 | 35 | 1005.0 |
| 20260505164504 | 57 | 0 | 0.0 | 0.0 | 0.00 | 0.00 | 0.00 | 36 | 1005.1 |
| 20260505164004 | 57 | 0 | 0.0 | 0.0 | 0.00 | 0.00 | 0.00 | 36 | 1005.2 |
| 20260505163504 | 56 | 0 | 0.0 | 0.0 | 0.00 | 0.00 | 0.00 | 36 | 1005.4 |
| 20260505163004 | 56 | 0 | 0.0 | 0.0 | 0.00 | 0.00 | 0.00 | 36 | 1005.3 |
| 20260505162504 | 56 | 0 | 0.0 | 0.0 | 0.00 | 0.00 | 0.00 | 37 | 1005.3 |
| 20260505162004 | 56 | 0 | 0.0 | 0.0 | 0.00 | 0.00 | 0.00 | 37 | 1005.2 |
| 20260505161505 | 55 | 0 | 0.0 | 0.0 | 0.00 | 0.00 | 0.00 | 38 | 1005.2 |
| 20260505161004 | 56 | 0 | 0.0 | 0.0 | 0.00 | 0.00 | 0.00 | 37 | 1005.1 |
| 20260505160506 | 56 | 0 | 0.0 | 0.0 | 0.00 | 0.00 | 0.00 | 36 | 1004.8 |
| 20260505152504 | 55 | 0 | 0.0 | 0.0 | 0.00 | 0.00 | 0.00 | 36 | 1004.5 |
| 20260505152005 | 55 | 0 | 0.0 | 0.0 | 0.00 | 0.00 | 0.00 | 36 | 1004.3 |
| 20260505151504 | 55 | 0 | 0.0 | 0.0 | 0.00 | 0.00 | 0.00 | 35 | 1004.2 |
| 20260505150505 | 55 | 0 | 0.0 | 0.0 | 0.00 | 0.00 | 0.00 | 35 | 1003.9 |
| 20260505140504 | 53 | 0 | 0.0 | 0.0 | 0.00 | 0.00 | 0.00 | 36 | 1003.8 |
| 20260505125004 | 54 | 0 | 0.0 | 0.0 | 0.00 | 0.00 | 0.00 | 38 | 1001.5 |
| 20260505124503 | 54 | 0 | 0.0 | 0.0 | 0.00 | 0.00 | 0.00 | 38 | 1001.4 |
| 20260505123504 | 54 | 0 | 0.0 | 0.0 | 0.00 | 0.00 | 0.00 | 38 | 1001.3 |
| 20260505122004 | 54 | 0 | 0.0 | 0.0 | 0.00 | 0.00 | 0.00 | 39 | 1000.9 |
| 20260505121504 | 55 | 0 | 0.0 | 0.0 | 0.00 | 0.00 | 0.00 | 39 | 1000.9 |
| 20260505121004 | 55 | 0 | 0.0 | 0.0 | 0.00 | 0.00 | 0.00 | 39 | 1000.8 |
| 20260505120504 | 55 | 0 | 0.0 | 0.0 | 0.00 | 0.00 | 0.00 | 39 | 1000.9 |
| 20260505120005 | 55 | 0 | 0.0 | 0.0 | 0.00 | 0.00 | 0.00 | 39 | 1000.9 |
| 20260505115504 | 55 | 0 | 0.0 | 0.0 | 0.00 | 0.00 | 0.00 | 40 | 1000.8 |
| 20260505115003 | 55 | 0 | 0.0 | 0.0 | 0.00 | 0.00 | 0.00 | 40 | 1000.6 |
| 20260505114504 | 55 | 0 | 0.0 | 0.0 | 0.00 | 0.00 | 0.00 | 40 | 1000.4 |
| 20260505113504 | 55 | 0 | 0.0 | 0.0 | 0.00 | 0.00 | 0.00 | 40 | 1000.3 |
| 20260505113004 | 55 | 0 | 0.0 | 0.0 | 0.00 | 0.00 | 0.00 | 41 | 1000.4 |
| 20260505112003 | 56 | 0 | 0.0 | 0.0 | 0.00 | 0.00 | 0.00 | 41 | 1000.1 |
| 20260505111504 | 56 | 0 | 0.0 | 0.0 | 0.00 | 0.00 | 0.00 | 41 | 1000.0 |
| 20260505111004 | 56 | 0 | 0.0 | 0.0 | 0.00 | 0.00 | 0.00 | 41 | 1000.0 |
| 20260505110504 | 57 | 0 | 0.0 | 0.0 | 0.00 | 0.00 | 0.00 | 42 | 1000.0 |
| 20260505101504 | 61 | 0 | 0.0 | 0.0 | 0.00 | 0.00 | 0.00 | 35 | 999.5 |
| 20260505101003 | 61 | 0 | 0.0 | 0.0 | 0.00 | 0.00 | 0.00 | 32 | 999.5 |
| 20260505100504 | 62 | 0 | 0.0 | 0.0 | 0.00 | 0.00 | 0.00 | 30 | 999.3 |
| 20260505100004 | 64 | 0 | 0.0 | 0.0 | 0.00 | 0.00 | 0.00 | 21 | 999.1 |
| 20260505095504 | 65 | 0 | 0.0 | 0.0 | 0.00 | 0.00 | 0.00 | 18 | 998.9 |
| 20260505095004 | 67 | 0 | 0.0 | 0.0 | 0.00 | 0.00 | 0.00 | 15 | 998.8 |
| 20260505094504 | 68 | 0 | 0.0 | 0.0 | 0.00 | 0.00 | 0.00 | 12 | 998.6 |
| 20260505094005 | 68 | 0 | 0.0 | 0.0 | 0.00 | 0.00 | 0.00 | 12 | 998.5 |
| 20260505093504 | 66 | 0 | 0.0 | 0.0 | 0.00 | 0.00 | 0.00 | 14 | 998.3 |
| 20260505093004 | 66 | 0 | 0.0 | 0.0 | 0.00 | 0.00 | 0.00 | 15 | 998.3 |
| 20260505092504 | 65 | 0 | 0.0 | 0.0 | 0.00 | 0.00 | 0.00 | 16 | 998.3 |
| 20260505092004 | 65 | 0 | 0.0 | 0.0 | 0.00 | 0.00 | 0.00 | 16 | 998.2 |
| 20260505091504 | 65 | 0 | 0.0 | 0.0 | 0.00 | 0.00 | 0.00 | 16 | 998.2 |
| 20260505091003 | 65 | 0 | 0.0 | 0.0 | 0.00 | 0.00 | 0.00 | 16 | 998.0 |
| 20260505090504 | 66 | 0 | 0.0 | 0.0 | 0.00 | 0.00 | 0.00 | 15 | 997.8 |
| 20260505090004 | 66 | 0 | 0.0 | 0.0 | 0.00 | 0.00 | 0.00 | 15 | 997.5 |
| 20260505085504 | 67 | 0 | 0.0 | 0.0 | 0.00 | 0.00 | 0.00 | 14 | 997.6 |
| 20260505085004 | 67 | 0 | 0.0 | 0.0 | 0.00 | 0.00 | 0.00 | 14 | 997.5 |
| 20260505084503 | 67 | 0 | 0.0 | 0.0 | 0.00 | 0.00 | 0.00 | 14 | 997.5 |
| 20260505083504 | 68 | 0 | 0.0 | 0.0 | 0.00 | 0.00 | 0.00 | 14 | 997.5 |
| 20260505083005 | 68 | 4 | 0.0 | 0.0 | 0.00 | 0.00 | 0.00 | 13 | 997.4 |
| 20260505082504 | 68 | 0 | 0.0 | 0.0 | 0.00 | 0.00 | 0.00 | 13 | 997.4 |
| 20260505081004 | 69 | 0 | 0.0 | 0.0 | 0.00 | 0.00 | 0.00 | 13 | 997.6 |
| 20260505080504 | 69 | 0 | 0.0 | 0.0 | 0.00 | 0.00 | 0.00 | 12 | 997.7 |
| 20260505080004 | 69 | 0 | 0.0 | 0.0 | 0.00 | 0.00 | 0.00 | 12 | 997.7 |
| 20260505075004 | 70 | 10 | 0.0 | 0.0 | 0.00 | 0.00 | 0.00 | 12 | 997.9 |
| 20260505074504 | 70 | 5 | 0.0 | 0.0 | 0.00 | 0.00 | 0.00 | 12 | 997.9 |
| 20260505074004 | 70 | 0 | 0.0 | 0.0 | 0.00 | 0.00 | 0.00 | 12 | 997.9 |
| 20260505073504 | 70 | 0 | 0.0 | 0.0 | 0.00 | 0.00 | 0.00 | 12 | 997.9 |
| 20260505072504 | 70 | 0 | 0.0 | 0.0 | 0.00 | 0.00 | 0.00 | 12 | 998.0 |
| 20260505072004 | 71 | 0 | 0.0 | 0.0 | 0.00 | 0.00 | 0.00 | 11 | 997.9 |
| 20260505071004 | 71 | 0 | 0.0 | 0.0 | 0.00 | 0.00 | 0.00 | 11 | 997.9 |
| 20260505070504 | 72 | 0 | 0.0 | 0.0 | 0.00 | 0.00 | 0.00 | 11 | 998.0 |
| 20260505070004 | 72 | 3 | 0.0 | 0.0 | 0.00 | 0.00 | 0.00 | 10 | 998.0 |
| 20260505065503 | 72 | 0 | 0.0 | 0.0 | 0.00 | 0.00 | 0.00 | 10 | 998.0 |
| 20260505065004 | 72 | 52 | 0.0 | 0.0 | 0.00 | 0.00 | 0.00 | 10 | 998.0 |
| 20260505064504 | 73 | 0 | 0.0 | 0.0 | 0.00 | 0.00 | 0.00 | 10 | 998.0 |
| 20260505064004 | 73 | 0 | 0.0 | 0.0 | 0.00 | 0.00 | 0.00 | 10 | 998.0 |
| 20260505063504 | 73 | 0 | 0.0 | 0.0 | 0.00 | 0.00 | 0.00 | 10 | 998.1 |
| 20260505063004 | 73 | 0 | 0.0 | 0.0 | 0.00 | 0.00 | 0.00 | 10 | 998.2 |
| 20260505062503 | 73 | 0 | 0.0 | 0.0 | 0.00 | 0.00 | 0.00 | 9 | 998.3 |
| 20260505062004 | 73 | 0 | 0.0 | 0.0 | 0.00 | 0.00 | 0.00 | 9 | 998.2 |
| 20260505061503 | 74 | 0 | 0.0 | 0.0 | 0.00 | 0.00 | 0.00 | 9 | 998.3 |
| 20260505060504 | 74 | 4 | 0.0 | 0.0 | 0.00 | 0.00 | 0.00 | 9 | 998.3 |
| 20260505060004 | 74 | 106 | 0.0 | 0.0 | 0.00 | 0.00 | 0.00 | 9 | 998.2 |
| 20260505055004 | 74 | 77 | 0.0 | 0.0 | 0.00 | 0.00 | 0.00 | 9 | 998.2 |
| 20260505054504 | 74 | 2 | 0.0 | 0.0 | 0.00 | 0.00 | 0.00 | 8 | 998.3 |
| 20260505053504 | 74 | 93 | 0.0 | 0.0 | 0.00 | 0.00 | 0.00 | 8 | 998.2 |
| 20260505052004 | 74 | 107 | 0.0 | 0.0 | 0.00 | 0.00 | 0.00 | 9 | 998.3 |
| 20260505051503 | 74 | 108 | 0.0 | 0.0 | 0.00 | 0.00 | 0.00 | 9 | 998.2 |
| 20260505051004 | 74 | 103 | 0.0 | 0.0 | 0.00 | 0.00 | 0.00 | 10 | 998.3 |
| 20260505050505 | 74 | 105 | 0.0 | 0.0 | 0.00 | 0.00 | 0.00 | 9 | 998.4 |
| 20260505041505 | 74 | 105 | 0.0 | 0.0 | 0.00 | 0.00 | 0.00 | 9 | 998.5 |
| 20260505041004 | 74 | 107 | 0.0 | 0.0 | 0.00 | 0.00 | 0.00 | 10 | 998.6 |
| 20260505040504 | 74 | 107 | 0.0 | 0.0 | 0.00 | 0.00 | 0.00 | 10 | 998.6 |
| 20260505040004 | 74 | 7 | 0.0 | 0.0 | 0.00 | 0.00 | 0.00 | 9 | 998.6 |
| 20260505035504 | 74 | 11 | 0.0 | 0.0 | 0.00 | 0.00 | 0.00 | 9 | 998.6 |
| 20260505035004 | 75 | 80 | 0.0 | 0.0 | 0.00 | 0.00 | 0.00 | 9 | 998.7 |
| 20260505034504 | 75 | 108 | 0.0 | 0.0 | 0.00 | 0.00 | 0.00 | 8 | 998.6 |
| 20260505034004 | 75 | 102 | 0.0 | 0.0 | 0.00 | 0.00 | 0.00 | 8 | 998.6 |
| 20260505033504 | 76 | 97 | 0.0 | 0.0 | 0.00 | 0.00 | 0.00 | 8 | 998.7 |
| 20260505033004 | 76 | 101 | 0.0 | 0.0 | 0.00 | 0.00 | 0.00 | 7 | 998.6 |
| 20260505032004 | 76 | 103 | 0.0 | 0.0 | 0.00 | 0.00 | 0.00 | 6 | 998.6 |
| 20260505031504 | 76 | 95 | 0.0 | 0.0 | 0.00 | 0.00 | 0.00 | 6 | 998.6 |
| 20260505030004 | 77 | 95 | 0.0 | 0.0 | 0.00 | 0.00 | 0.00 | 5 | 998.5 |
| 20260505023504 | 78 | 6 | 0.0 | 0.0 | 0.00 | 0.00 | 0.00 | 3 | 998.2 |
| 20260505023004 | 78 | 107 | 0.0 | 0.0 | 0.00 | 0.00 | 0.00 | 3 | 998.2 |
| 20260505022504 | 78 | 107 | 0.0 | 0.0 | 0.00 | 0.00 | 0.00 | 3 | 998.2 |
| 20260505022004 | 78 | 107 | 0.0 | 0.0 | 0.00 | 0.00 | 0.00 | 3 | 998.2 |
| 20260505021505 | 78 | 107 | 0.0 | 0.0 | 0.00 | 0.00 | 0.00 | 3 | 998.2 |
| 20260505021004 | 78 | 107 | 0.0 | 0.0 | 0.00 | 0.00 | 0.00 | 3 | 998.3 |
| 20260505020504 | 78 | 107 | 0.0 | 0.0 | 0.00 | 0.00 | 0.00 | 3 | 998.3 |
| 20260505015503 | 79 | 107 | 0.0 | 0.0 | 0.00 | 0.00 | 0.00 | 3 | 998.3 |
| 20260505015004 | 79 | 107 | 0.0 | 0.0 | 0.00 | 0.00 | 0.00 | 3 | 998.3 |
| 20260505014504 | 79 | 105 | 0.0 | 0.0 | 0.00 | 0.00 | 0.00 | 3 | 998.3 |
| 20260505013504 | 80 | 104 | 0.0 | 0.0 | 0.00 | 0.00 | 0.00 | 3 | 998.2 |
| 20260505013004 | 80 | 107 | 0.0 | 0.0 | 0.00 | 0.00 | 0.00 | 3 | 998.1 |
| 20260505012503 | 80 | 106 | 0.0 | 0.0 | 0.00 | 0.00 | 0.00 | 3 | 998.0 |
| 20260505011503 | 81 | 62 | 0.0 | 0.0 | 0.00 | 0.00 | 0.00 | 3 | 997.9 |
| 20260505011004 | 81 | 107 | 0.0 | 0.0 | 0.00 | 0.00 | 0.00 | 3 | 998.0 |
| 20260505010504 | 81 | 107 | 0.0 | 0.0 | 0.00 | 0.00 | 0.00 | 3 | 997.9 |
| 20260505010004 | 82 | 107 | 0.0 | 0.0 | 0.00 | 0.00 | 0.00 | 3 | 997.9 |
| 20260505005004 | 82 | 107 | 0.0 | 0.0 | 0.00 | 0.00 | 0.00 | 3 | 998.1 |
| 20260505004504 | 82 | 107 | 0.0 | 0.0 | 0.00 | 0.00 | 0.00 | 3 | 998.1 |
| 20260505002004 | 83 | 107 | 0.0 | 0.0 | 0.00 | 0.00 | 0.00 | 3 | 998.4 |
| 20260505001505 | 83 | 107 | 0.0 | 0.0 | 0.00 | 0.00 | 0.00 | 3 | 998.3 |
| 20260505001004 | 83 | 107 | 0.0 | 0.0 | 0.00 | 0.00 | 0.00 | 3 | 998.3 |
| 20260505000503 | 83 | 107 | 0.0 | 0.0 | 0.00 | 0.00 | 0.00 | 3 | 998.3 |
| 20260505000004 | 84 | 107 | 0.0 | 0.0 | 0.00 | 0.00 | 0.00 | 3 | 998.3 |
| 20260504235504 | 84 | 107 | 0.0 | 0.0 | 0.00 | 0.00 | 0.00 | 3 | 998.3 |
| 20260504235004 | 84 | 108 | 0.0 | 0.0 | 0.00 | 0.00 | 0.00 | 3 | 998.4 |
| 20260504234004 | 84 | 0 | 0.0 | 0.0 | 0.00 | 0.00 | 0.00 | 3 | 998.2 |
| 20260504232503 | 84 | 5 | 0.0 | 0.0 | 0.00 | 0.00 | 0.00 | 4 | 998.0 |
| 20260504232004 | 84 | 53 | 0.0 | 0.0 | 0.00 | 0.00 | 0.00 | 5 | 998.1 |
| 20260504231504 | 84 | 8 | 0.0 | 0.0 | 0.00 | 0.00 | 0.00 | 5 | 998.2 |
| 20260504231004 | 84 | 0 | 0.0 | 0.0 | 0.00 | 0.00 | 0.00 | 6 | 998.2 |
| 20260504230004 | 84 | 59 | 0.0 | 0.0 | 0.00 | 0.00 | 0.00 | 7 | 998.4 |
| 20260504225504 | 84 | 2 | 0.0 | 0.0 | 0.00 | 0.00 | 0.00 | 8 | 998.4 |
| 20260504225005 | 84 | 11 | 0.0 | 0.0 | 0.00 | 0.00 | 0.00 | 8 | 998.5 |
| 20260504224004 | 84 | 6 | 0.0 | 0.0 | 0.00 | 0.00 | 0.00 | 6 | 998.6 |
| 20260504223504 | 84 | 84 | 0.0 | 0.0 | 0.00 | 0.00 | 0.00 | 5 | 998.7 |
| 20260504223004 | 84 | 0 | 0.0 | 0.0 | 0.00 | 0.00 | 0.00 | 5 | 998.8 |
| 20260504222503 | 84 | 4 | 0.0 | 0.0 | 0.00 | 0.00 | 0.00 | 4 | 998.9 |
| 20260504222004 | 85 | 23 | 0.0 | 0.0 | 0.00 | 0.00 | 0.00 | 4 | 998.8 |
| 20260504221504 | 85 | 0 | 0.0 | 0.0 | 0.00 | 0.00 | 0.00 | 4 | 999.0 |
| 20260504220504 | 85 | 64 | 0.0 | 0.0 | 0.00 | 0.00 | 0.00 | 4 | 999.0 |
| 20260504220004 | 85 | 58 | 0.0 | 0.0 | 0.00 | 0.00 | 0.00 | 3 | 999.0 |
| 20260504215504 | 85 | 102 | 0.0 | 0.0 | 0.00 | 0.00 | 0.00 | 3 | 999.2 |
| 20260504215004 | 86 | 4 | 0.0 | 0.0 | 0.00 | 0.00 | 0.00 | 3 | 999.3 |
| 20260504213504 | 84 | 90 | 0.0 | 0.0 | 0.00 | 0.00 | 0.00 | 5 | 999.5 |
| 20260504213004 | 84 | 5 | 0.0 | 0.0 | 0.00 | 0.00 | 0.00 | 6 | 999.5 |
| 20260504212504 | 84 | 6 | 0.0 | 0.0 | 0.00 | 0.00 | 0.00 | 6 | 999.6 |
| 20260504212004 | 84 | 32 | 0.0 | 0.0 | 0.00 | 0.00 | 0.00 | 5 | 999.8 |
| 20260504211504 | 84 | 2 | 0.0 | 0.0 | 0.00 | 0.00 | 0.00 | 6 | 1000.1 |
| 20260504211004 | 85 | 32 | 0.0 | 0.0 | 0.00 | 0.00 | 0.00 | 6 | 999.9 |
| 20260504210004 | 85 | 96 | 0.0 | 0.0 | 0.00 | 0.00 | 0.00 | 6 | 1000.1 |
| 20260504205004 | 85 | 73 | 0.0 | 0.0 | 0.00 | 0.00 | 0.00 | 8 | 1000.2 |
| 20260504204004 | 84 | 75 | 0.0 | 0.0 | 0.00 | 0.00 | 0.00 | 8 | 1000.4 |
| 20260504203504 | 84 | 98 | 0.0 | 0.0 | 0.00 | 0.00 | 0.00 | 7 | 1000.4 |
| 20260504203006 | 84 | 65 | 0.0 | 0.0 | 0.00 | 0.00 | 0.00 | 8 | 1000.5 |
| 20260504202504 | 85 | 111 | 0.0 | 0.0 | 0.00 | 0.00 | 0.00 | 7 | 1000.6 |
| 20260504202003 | 84 | 0 | 0.0 | 0.0 | 0.00 | 0.00 | 0.00 | 6 | 1000.6 |
| 20260504201504 | 83 | 110 | 0.0 | 0.0 | 0.00 | 0.00 | 0.00 | 6 | 1000.7 |
| 20260504195504 | 83 | 108 | 0.0 | 0.0 | 0.00 | 0.00 | 0.00 | 9 | 1000.9 |
| 20260504195003 | 83 | 110 | 0.0 | 0.0 | 0.00 | 0.00 | 0.00 | 9 | 1001.0 |
| 20260504194004 | 83 | 110 | 0.0 | 0.0 | 0.00 | 0.00 | 0.00 | 10 | 1001.3 |
| 20260504193504 | 83 | 110 | 0.0 | 0.0 | 0.00 | 0.00 | 0.00 | 10 | 1001.2 |
| 20260504193004 | 83 | 111 | 0.0 | 0.0 | 0.00 | 0.00 | 0.00 | 9 | 1001.4 |
| 20260504192504 | 82 | 111 | 0.0 | 0.0 | 0.00 | 0.00 | 0.00 | 10 | 1001.4 |
| 20260504191503 | 82 | 111 | 0.0 | 0.0 | 0.00 | 0.00 | 0.00 | 10 | 1001.5 |
| 20260504185503 | 83 | 111 | 0.0 | 0.0 | 0.00 | 0.00 | 0.00 | 9 | 1001.8 |
| 20260504184003 | 83 | 111 | 0.0 | 0.0 | 0.00 | 0.00 | 0.00 | 9 | 1002.2 |
| 20260504183504 | 83 | 110 | 0.0 | 0.0 | 0.00 | 0.00 | 0.00 | 9 | 1002.3 |
| 20260504183004 | 82 | 111 | 0.0 | 0.0 | 0.00 | 0.00 | 0.00 | 10 | 1002.5 |
| 20260504182503 | 82 | 111 | 0.0 | 0.0 | 0.00 | 0.00 | 0.00 | 10 | 1002.6 |
| 20260504182004 | 82 | 110 | 0.0 | 0.0 | 0.00 | 0.00 | 0.00 | 10 | 1002.7 |
| 20260504181504 | 82 | 110 | 0.0 | 0.0 | 0.00 | 0.00 | 0.00 | 11 | 1002.8 |
| 20260504181004 | 82 | 110 | 0.0 | 0.0 | 0.00 | 0.00 | 0.00 | 10 | 1002.9 |
| 20260504180504 | 81 | 108 | 0.0 | 0.0 | 0.00 | 0.00 | 0.00 | 11 | 1003.0 |
| 20260504174504 | 81 | 19 | 0.0 | 0.0 | 0.00 | 0.00 | 0.00 | 10 | 1003.3 |
| 20260504173503 | 81 | 10 | 0.0 | 0.0 | 0.00 | 0.00 | 0.00 | 10 | 1003.5 |
| 20260504173004 | 81 | 16 | 0.0 | 0.0 | 0.00 | 0.00 | 0.00 | 11 | 1003.6 |
| 20260504172503 | 81 | 27 | 0.0 | 0.0 | 0.00 | 0.00 | 0.00 | 10 | 1003.7 |
| 20260504172004 | 81 | 0 | 0.0 | 0.0 | 0.00 | 0.00 | 0.00 | 10 | 1003.7 |